Time;durP1;ratioP1;P1;durP2;ratioP2;P2;SDS_P1;SDS_P2;PMS_P1;PMS_P2;Temp;Humidity;BMP_temperature;BMP_pressure;BME280_temperature;BME280_humidity;BME280_pressure;Samples;Min_cycle;Max_cycle;Signal;HPM_P1;HPM_P2
2023/03/28 00:02:14;;;;;;;;;;;3.00;99.90;;;;;;5012563;28;19922;-93
2023/03/28 00:04:42;;;;;;;;;;;3.00;99.90;;;;;;5015889;28;19926;-91
2023/03/28 00:07:10;;;;;;;;;;;3.00;99.90;;;;;;5000239;28;19914;-92
2023/03/28 00:09:42;;;;;;;;;;;3.00;99.90;;;;;;5012834;28;19997;-93
2023/03/28 00:12:10;;;;;;;;;;;3.00;99.90;;;;;;4994790;28;19914;-92
2023/03/28 00:14:37;;;;;;;;;;;3.00;99.90;;;;;;4999075;28;19914;-92
2023/03/28 00:17:06;;;;;;;;;;;3.00;99.90;;;;;;4996610;28;19998;-93
2023/03/28 00:19:39;;;;;;;;;;;3.00;99.90;;;;;;4996239;28;19930;-93
2023/03/28 00:22:07;;;;;;;;;;;3.00;99.90;;;;;;5018032;28;19929;-91
2023/03/28 00:24:37;;;;;;;;;;;3.00;99.90;;;;;;5002572;28;19914;-92
2023/03/28 00:27:06;;;;;;;;;;;3.00;99.90;;;;;;5014943;28;19949;-91
2023/03/28 00:29:33;;;;;;;;;;;3.00;99.90;;;;;;5014692;28;19945;-92
2023/03/28 00:32:00;;;;;;;;;;;2.90;99.90;;;;;;5013143;28;19933;-93
2023/03/28 00:34:28;;;;;;;;;;;2.90;99.90;;;;;;4997657;28;19930;-93
2023/03/28 00:36:55;;;;;;;;;;;2.90;99.90;;;;;;4998677;28;20190;-92
2023/03/28 00:39:22;;;;;;;;;;;2.90;99.90;;;;;;4997878;28;19922;-92
2023/03/28 00:41:51;;;;;;;;;;;2.90;99.90;;;;;;5002847;28;19914;-93
2023/03/28 00:44:34;;;;;;;;;;;2.90;99.90;;;;;;4996848;28;19910;-92
2023/03/28 00:47:01;;;;;;;;;;;2.90;99.90;;;;;;4992594;28;19941;-93
2023/03/28 00:49:29;;;;;;;;;;;2.90;99.90;;;;;;5013448;28;19910;-93
2023/03/28 00:51:57;;;;;;;;;;;2.90;99.90;;;;;;5013573;28;19921;-92
2023/03/28 00:54:28;;;;;;;;;;;2.90;99.90;;;;;;4998862;28;19914;-92
2023/03/28 00:56:59;;;;;;;;;;;2.90;99.90;;;;;;4998773;28;19941;-91
2023/03/28 00:59:27;;;;;;;;;;;2.90;99.90;;;;;;4993040;28;19930;-92
2023/03/28 01:01:55;;;;;;;;;;;2.90;99.90;;;;;;4999372;28;19910;-92
2023/03/28 01:04:24;;;;;;;;;;;2.90;99.90;;;;;;4996847;28;19910;-93
2023/03/28 01:06:55;;;;;;;;;;;2.90;99.90;;;;;;5018498;28;19914;-92
2023/03/28 01:09:24;;;;;;;;;;;2.80;99.90;;;;;;5020607;28;19910;-92
2023/03/28 01:11:55;;;;;;;;;;;2.80;99.90;;;;;;4999381;28;19934;-91
2023/03/28 01:14:29;;;;;;;;;;;2.80;99.90;;;;;;4999265;28;19914;-93
2023/03/28 01:16:59;;;;;;;;;;;2.80;99.90;;;;;;5012240;28;19961;-93
2023/03/28 01:19:36;;;;;;;;;;;2.80;99.90;;;;;;5000926;28;19921;-92
2023/03/28 01:22:18;;;;;;;;;;;2.80;99.90;;;;;;4998932;28;19934;-92
2023/03/28 01:25:04;;;;;;;;;;;2.80;99.90;;;;;;4981668;23;19965;-78
2023/03/28 01:27:34;;;;;;;;;;;2.80;99.90;;;;;;4961178;28;19927;-77
2023/03/28 01:30:19;;;;;;;;;;;2.80;99.90;;;;;;4942064;28;19927;-78
2023/03/28 01:33:25;;;;;;;;;;;2.80;99.90;;;;;;4929115;29;20029;-78
2023/03/28 01:36:12;;;;;;;;;;;2.80;99.90;;;;;;4928809;29;19927;-78
2023/03/28 01:38:45;;;;;;;;;;;2.80;99.90;;;;;;4962801;28;20368;-77
2023/03/28 01:41:19;;;;;;;;;;;2.70;99.90;;;;;;4959009;28;19930;-77
2023/03/28 01:43:50;;;;;;;;;;;2.70;99.90;;;;;;4939210;28;20412;-77
2023/03/28 01:46:20;;;;;;;;;;;2.70;99.90;;;;;;4926559;29;19927;-77
2023/03/28 01:48:53;;;;;;;;;;;2.70;99.90;;;;;;4926659;29;20390;-77
2023/03/28 01:51:24;;;;;;;;;;;2.70;99.90;;;;;;4931105;29;19939;-78
2023/03/28 01:53:56;;;;;;;;;;;2.70;99.90;;;;;;4940667;28;20381;-77
2023/03/28 01:56:29;;;;;;;;;;;2.70;99.90;;;;;;4943889;28;19962;-77
2023/03/28 01:59:00;;;;;;;;;;;2.70;99.90;;;;;;4959120;28;20406;-77
2023/03/28 02:01:50;;;;;;;;;;;2.70;99.90;;;;;;4924124;29;19934;-78
2023/03/28 02:04:19;;;;;;;;;;;2.60;99.90;;;;;;4946089;28;19934;-77
2023/03/28 02:06:57;;;;;;;;;;;;;;;;;;4926631;29;21539;-78
2023/03/28 02:09:28;;;;;;;;;;;;;;;;;;4923212;29;19927;-77
2023/03/28 02:12:05;;;;;;;;;;;;;;;;;;4928131;29;20605;-78
2023/03/28 02:14:50;;;;;;;;;;;;;;;;;;4931483;29;19930;-78
2023/03/28 02:17:33;;;;;;;;;;;;;;;;;;4936853;28;20018;-78
2023/03/28 02:20:27;;;;;;;;;;;2.30;99.90;;;;;;4922561;29;19927;-77
2023/03/28 02:23:15;;;;;;;;;;;2.50;99.90;;;;;;4943946;28;19927;-76
2023/03/28 02:26:00;;;;;;;;;;;2.60;99.90;;;;;;4923025;29;19933;-77
2023/03/28 02:28:56;;;;;;;;;;;2.60;99.90;;;;;;4920715;28;19931;-77
2023/03/28 02:31:42;;;;;;;;;;;2.50;99.90;;;;;;4929863;29;19982;-78
2023/03/28 02:34:09;;;;;;;;;;;2.60;99.90;;;;;;4929029;29;19942;-77
2023/03/28 02:36:43;;;;;;;;;;;2.60;99.90;;;;;;4923593;29;20016;-78
2023/03/28 02:39:19;;;;;;;;;;;2.50;99.90;;;;;;4965743;28;19927;-77
2023/03/28 02:41:53;;;;;;;;;;;2.50;99.90;;;;;;4952542;29;19935;-79
2023/03/28 02:44:25;;;;;;;;;;;2.50;99.90;;;;;;4945813;29;19935;-78
2023/03/28 02:46:55;;;;;;;;;;;2.50;99.90;;;;;;4941892;28;20416;-78
2023/03/28 02:49:26;;;;;;;;;;;2.50;99.90;;;;;;4929951;29;19982;-78
2023/03/28 02:52:00;;;;;;;;;;;2.50;99.90;;;;;;4929638;29;20034;-77
2023/03/28 02:54:33;;;;;;;;;;;2.50;99.90;;;;;;4959636;28;19926;-77
2023/03/28 02:57:27;;;;;;;;;;;2.50;99.90;;;;;;4933829;29;19926;-77
2023/03/28 02:59:55;;;;;;;;;;;2.50;99.90;;;;;;4925940;29;20416;-77
2023/03/28 03:02:23;;;;;;;;;;;2.50;99.90;;;;;;4923047;29;20455;-77
2023/03/28 03:04:50;;;;;;;;;;;2.50;99.90;;;;;;4946005;28;20393;-77
2023/03/28 03:07:18;;;;;;;;;;;2.50;99.90;;;;;;4941914;28;20009;-77
2023/03/28 03:09:45;;;;;;;;;;;2.50;99.90;;;;;;4958012;28;20312;-77
2023/03/28 03:12:12;;;;;;;;;;;2.50;99.90;;;;;;4954831;28;19982;-78
2023/03/28 03:14:39;;;;;;;;;;;2.50;99.90;;;;;;4926179;29;19930;-78
2023/03/28 03:17:24;;;;;;;;;;;2.50;99.90;;;;;;4922154;29;19942;-77
2023/03/28 03:19:51;;;;;;;;;;;2.50;99.90;;;;;;4920141;29;19934;-78
2023/03/28 03:22:19;;;;;;;;;;;2.50;99.90;;;;;;4931001;28;19931;-78
2023/03/28 03:24:50;;;;;;;;;;;2.50;99.90;;;;;;4958225;28;19934;-78
2023/03/28 03:27:17;;;;;;;;;;;2.50;99.90;;;;;;4928468;29;19927;-77
2023/03/28 03:29:44;;;;;;;;;;;2.50;99.90;;;;;;4942497;28;20406;-78
2023/03/28 03:34:59;;;;;;;;;;;2.50;99.90;;;;;;4943925;28;20542;-75
2023/03/28 03:37:27;;;;;;;;;;;2.50;99.90;;;;;;4985647;23;20356;-76
2023/03/28 03:39:54;;;;;;;;;;;2.50;99.90;;;;;;4961828;28;19930;-75
2023/03/28 03:42:29;;;;;;;;;;;2.50;99.90;;;;;;4962021;28;19934;-75
2023/03/28 03:44:56;;;;;;;;;;;2.50;99.90;;;;;;4961584;28;20025;-75
2023/03/28 03:47:24;;;;;;;;;;;2.40;99.90;;;;;;4961792;28;20021;-75
2023/03/28 03:49:50;;;;;;;;;;;2.40;99.90;;;;;;4981260;28;19969;-75
2023/03/28 03:52:17;;;;;;;;;;;2.40;99.90;;;;;;4950139;28;19990;-75
2023/03/28 03:54:46;;;;;;;;;;;2.40;99.90;;;;;;4945462;28;19926;-76
2023/03/28 03:57:13;;;;;;;;;;;2.40;99.90;;;;;;4979798;28;20017;-75
2023/03/28 03:59:40;;;;;;;;;;;2.40;99.90;;;;;;4946075;28;19926;-75
2023/03/28 04:02:11;;;;;;;;;;;2.40;99.90;;;;;;4978565;28;19934;-74
2023/03/28 04:04:47;;;;;;;;;;;2.30;99.90;;;;;;4941716;28;20067;-75
2023/03/28 04:07:25;;;;;;;;;;;2.30;99.90;;;;;;4964065;28;19938;-76
2023/03/28 04:09:56;;;;;;;;;;;2.40;99.90;;;;;;4971091;28;19927;-75
2023/03/28 04:12:26;;;;;;;;;;;2.40;99.90;;;;;;4946309;28;20025;-75
2023/03/28 04:14:55;;;;;;;;;;;2.30;99.90;;;;;;4951946;28;19930;-75
2023/03/28 04:17:45;;;;;;;;;;;2.30;99.90;;;;;;4929701;28;20308;-75
2023/03/28 04:20:16;;;;;;;;;;;2.30;99.90;;;;;;4983038;28;20040;-75
2023/03/28 04:23:19;;;;;;;;;;;2.30;99.90;;;;;;4934652;28;19926;-76
2023/03/28 04:25:49;;;;;;;;;;;2.30;99.90;;;;;;4944645;28;19941;-75
2023/03/28 04:28:26;;;;;;;;;;;2.30;99.90;;;;;;4953515;28;19933;-75
2023/03/28 04:30:58;;;;;;;;;;;2.30;99.90;;;;;;4987458;28;19970;-75
2023/03/28 04:33:44;;;;;;;;;;;2.30;99.90;;;;;;4950704;28;19933;-75
2023/03/28 04:36:15;;;;;;;;;;;2.30;99.90;;;;;;4953448;28;20309;-75
2023/03/28 04:38:45;;;;;;;;;;;2.30;99.90;;;;;;4952349;28;19927;-75
2023/03/28 04:41:28;;;;;;;;;;;2.30;99.90;;;;;;4952025;28;20025;-75
2023/03/28 04:44:20;;;;;;;;;;;2.30;99.90;;;;;;4952208;28;19926;-75
2023/03/28 04:46:57;;;;;;;;;;;2.30;99.90;;;;;;4950862;28;19935;-75
2023/03/28 04:49:24;;;;;;;;;;;2.30;99.90;;;;;;4956355;28;19930;-75
2023/03/28 04:51:51;;;;;;;;;;;2.30;99.90;;;;;;4947338;28;20029;-75
2023/03/28 04:54:18;;;;;;;;;;;2.30;99.90;;;;;;4954116;28;19938;-75
2023/03/28 04:56:48;;;;;;;;;;;2.30;99.90;;;;;;4950564;28;20368;-75
2023/03/28 04:59:20;;;;;;;;;;;2.30;99.90;;;;;;4968295;28;19930;-75
2023/03/28 05:01:48;;;;;;;;;;;2.30;99.90;;;;;;4951178;28;19973;-75
2023/03/28 05:04:33;;;;;;;;;;;2.30;99.90;;;;;;4943932;28;20099;-77
2023/03/28 05:07:04;;;;;;;;;;;2.30;99.90;;;;;;4950238;28;20054;-76
2023/03/28 05:09:32;;;;;;;;;;;2.30;99.90;;;;;;4952552;28;20361;-74
2023/03/28 05:12:00;;;;;;;;;;;2.30;99.90;;;;;;4981973;28;19926;-76
2023/03/28 05:14:27;;;;;;;;;;;2.30;99.90;;;;;;4987255;28;20007;-76
2023/03/28 05:17:07;;;;;;;;;;;2.30;99.90;;;;;;4943862;28;19974;-74
2023/03/28 05:19:46;;;;;;;;;;;2.30;99.90;;;;;;4955747;28;20460;-76
2023/03/28 05:22:16;;;;;;;;;;;2.30;99.90;;;;;;4980901;28;19927;-75
2023/03/28 05:24:43;;;;;;;;;;;2.30;99.90;;;;;;4956623;28;19930;-76
2023/03/28 05:27:17;;;;;;;;;;;2.30;99.90;;;;;;4971807;28;20539;-77
2023/03/28 05:29:44;;;;;;;;;;;2.30;99.90;;;;;;4987569;28;19970;-75
2023/03/28 05:32:12;;;;;;;;;;;2.30;99.90;;;;;;4952908;28;20396;-75
2023/03/28 05:34:40;;;;;;;;;;;2.30;99.90;;;;;;4948230;28;20312;-75
2023/03/28 05:37:08;;;;;;;;;;;2.30;99.90;;;;;;4984762;28;19926;-75
2023/03/28 05:39:55;;;;;;;;;;;2.30;99.90;;;;;;4950380;28;20331;-75
2023/03/28 05:42:23;;;;;;;;;;;2.30;99.90;;;;;;4956150;28;19938;-75
2023/03/28 05:44:50;;;;;;;;;;;2.30;99.90;;;;;;4980608;28;20393;-75
2023/03/28 05:47:17;;;;;;;;;;;2.20;99.90;;;;;;4950124;28;19933;-75
2023/03/28 05:49:44;;;;;;;;;;;2.20;99.90;;;;;;4982078;28;19958;-73
2023/03/28 05:52:11;;;;;;;;;;;2.20;99.90;;;;;;4952271;28;19933;-75
2023/03/28 05:54:39;;;;;;;;;;;2.20;99.90;;;;;;4981000;28;20001;-75
2023/03/28 05:57:07;;;;;;;;;;;2.20;99.90;;;;;;4951176;28;19933;-75
2023/03/28 05:59:39;;;;;;;;;;;2.10;99.90;;;;;;4948995;28;19930;-75
2023/03/28 06:02:06;;;;;;;;;;;2.30;99.90;;;;;;4960883;28;20349;-75
2023/03/28 06:04:33;;;;;;;;;;;2.20;99.90;;;;;;4953450;28;19926;-75
2023/03/28 06:07:00;;;;;;;;;;;2.10;99.90;;;;;;4980008;28;19931;-75
2023/03/28 06:09:30;;;;;;;;;;;2.20;99.90;;;;;;4955431;28;19965;-75
2023/03/28 06:11:59;;;;;;;;;;;2.30;99.90;;;;;;4951038;28;19982;-75
2023/03/28 06:14:26;;;;;;;;;;;2.10;99.90;;;;;;4953087;28;19973;-75
2023/03/28 06:16:57;;;;;;;;;;;2.30;99.90;;;;;;4981021;28;19926;-75
2023/03/28 06:19:26;;;;;;;;;;;2.30;99.90;;;;;;4984027;28;19930;-77
2023/03/28 06:21:55;;;;;;;;;;;2.10;99.90;;;;;;4952188;28;19927;-75
2023/03/28 06:24:22;;;;;;;;;;;2.30;99.90;;;;;;4989287;28;19931;-73
2023/03/28 06:26:49;;;;;;;;;;;2.10;99.90;;;;;;4999712;28;19934;-74
2023/03/28 06:29:20;;;;;;;;;;;2.20;99.90;;;;;;4998743;28;19977;-74
2023/03/28 06:31:49;;;;;;;;;;;2.20;99.90;;;;;;4983861;28;19927;-74
2023/03/28 06:34:17;;;;;;;;;;;2.10;99.90;;;;;;4948742;28;19935;-74
2023/03/28 06:37:00;;;;;;;;;;;2.20;99.90;;;;;;4950039;28;19934;-75
2023/03/28 06:39:41;;;;;;;;;;;2.20;99.90;;;;;;4987362;28;19933;-76
2023/03/28 06:42:08;;;;;;;;;;;2.20;99.90;;;;;;4982599;28;20005;-74
2023/03/28 06:44:47;;;;;;;;;;;2.20;99.90;;;;;;4948959;28;20025;-75
2023/03/28 06:47:23;;;;;;;;;;;2.20;99.90;;;;;;4954436;28;19985;-74
2023/03/28 06:49:52;;;;;;;;;;;2.10;99.90;;;;;;4951242;28;19926;-74
2023/03/28 06:52:34;;;;;;;;;;;2.10;99.90;;;;;;4946591;28;20053;-74
2023/03/28 06:55:04;;;;;;;;;;;2.10;99.90;;;;;;4949294;28;20357;-74
2023/03/28 06:57:31;;;;;;;;;;;2.30;99.90;;;;;;4985222;28;19926;-74
2023/03/28 07:00:12;;;;;;;;;;;2.20;99.90;;;;;;4946398;28;20013;-74
2023/03/28 07:03:05;;;;;;;;;;;2.10;99.90;;;;;;4928176;28;19927;-74
2023/03/28 07:05:37;;;;;;;;;;;2.10;99.90;;;;;;4950964;28;20282;-74
2023/03/28 07:08:04;;;;;;;;;;;2.00;99.90;;;;;;4953416;28;19932;-74
2023/03/28 07:10:31;;;;;;;;;;;2.20;99.90;;;;;;4947589;28;20021;-74
2023/03/28 07:12:58;;;;;;;;;;;2.20;99.90;;;;;;4955706;28;19926;-74
2023/03/28 07:15:25;;;;;;;;;;;2.20;99.90;;;;;;4950630;28;19926;-74
2023/03/28 07:17:52;;;;;;;;;;;2.10;99.90;;;;;;4949687;28;20289;-74
2023/03/28 07:20:19;;;;;;;;;;;2.20;99.90;;;;;;4948268;28;19941;-74
2023/03/28 07:22:47;;;;;;;;;;;2.20;99.90;;;;;;4944739;28;19933;-74
2023/03/28 07:25:14;;;;;;;;;;;2.30;99.90;;;;;;4950533;28;19954;-74
2023/03/28 07:27:46;;;;;;;;;;;2.20;99.90;;;;;;4945045;28;20309;-76
2023/03/28 07:30:14;;;;;;;;;;;2.20;99.90;;;;;;4978380;28;19977;-74
2023/03/28 07:32:41;;;;;;;;;;;2.30;99.90;;;;;;4947188;28;19968;-74
2023/03/28 07:35:08;;;;;;;;;;;2.10;99.90;;;;;;4950165;28;19927;-74
2023/03/28 07:37:42;;;;;;;;;;;2.10;99.90;;;;;;4945678;28;20570;-74
2023/03/28 07:40:17;;;;;;;;;;;2.10;99.90;;;;;;4983379;28;19933;-74
2023/03/28 07:42:45;;;;;;;;;;;2.10;99.90;;;;;;4941714;28;19973;-74
2023/03/28 07:45:12;;;;;;;;;;;2.10;99.90;;;;;;4985511;28;19974;-75
2023/03/28 07:47:39;;;;;;;;;;;2.10;99.90;;;;;;4943159;28;19927;-74
2023/03/28 07:50:06;;;;;;;;;;;2.10;99.90;;;;;;4982645;28;20412;-74
2023/03/28 07:52:33;;;;;;;;;;;2.20;99.90;;;;;;4950542;28;20165;-74
2023/03/28 07:55:00;;;;;;;;;;;2.20;99.90;;;;;;4953219;28;19933;-74
2023/03/28 07:57:30;;;;;;;;;;;2.20;99.90;;;;;;4948096;28;19934;-74
2023/03/28 08:00:12;;;;;;;;;;;2.00;99.90;;;;;;4951197;28;19926;-74
2023/03/28 08:02:40;;;;;;;;;;;2.20;99.90;;;;;;4954365;28;19989;-74
2023/03/28 08:05:07;;;;;;;;;;;2.20;99.90;;;;;;4956906;28;19926;-76
2023/03/28 08:07:34;;;;;;;;;;;2.20;99.90;;;;;;4985445;28;19930;-74
2023/03/28 08:10:01;;;;;;;;;;;2.30;99.90;;;;;;4985137;28;19927;-74
2023/03/28 08:12:30;;;;;;;;;;;2.20;99.90;;;;;;4985520;28;19974;-74
2023/03/28 08:14:57;;;;;;;;;;;2.30;99.90;;;;;;4949458;28;19933;-74
2023/03/28 08:17:25;;;;;;;;;;;2.30;99.90;;;;;;4951601;28;19969;-75
2023/03/28 08:19:53;;;;;;;;;;;2.30;99.90;;;;;;4985374;28;19968;-74
2023/03/28 08:22:40;;;;;;;;;;;2.30;99.90;;;;;;4954264;28;19927;-74
2023/03/28 08:25:29;;;;;;;;;;;2.40;99.90;;;;;;4950825;28;19927;-74
2023/03/28 08:27:58;;;;;;;;;;;2.40;99.90;;;;;;4950485;28;19926;-74
2023/03/28 08:30:24;;;;;;;;;;;2.20;99.90;;;;;;4951906;28;19927;-75
2023/03/28 08:32:57;;;;;;;;;;;2.20;99.90;;;;;;4948255;28;19930;-74
2023/03/28 08:35:25;;;;;;;;;;;2.30;99.90;;;;;;4952542;28;19926;-75
2023/03/28 08:37:55;;;;;;;;;;;2.30;99.90;;;;;;4986016;28;19933;-74
2023/03/28 08:40:24;;;;;;;;;;;2.20;99.90;;;;;;4958080;28;20313;-75
2023/03/28 08:42:57;;;;;;;;;;;2.30;99.90;;;;;;4952111;28;20016;-74
2023/03/28 08:45:30;;;;;;;;;;;2.30;99.90;;;;;;4957885;28;19927;-75
2023/03/28 08:48:03;;;;;;;;;;;2.30;99.90;;;;;;4982811;28;19926;-75
2023/03/28 08:50:33;;;;;;;;;;;2.30;99.90;;;;;;4982596;28;19926;-74
2023/03/28 08:53:00;;;;;;;;;;;2.30;99.90;;;;;;4952211;28;19930;-74
2023/03/28 08:55:30;;;;;;;;;;;2.30;99.90;;;;;;4990068;28;20308;-74
2023/03/28 08:57:58;;;;;;;;;;;2.40;99.90;;;;;;4951649;28;19958;-76
2023/03/28 09:00:27;;;;;;;;;;;2.30;99.90;;;;;;4944480;28;20017;-74
2023/03/28 09:02:56;;;;;;;;;;;2.30;99.90;;;;;;4954413;28;19985;-74
2023/03/28 09:05:29;;;;;;;;;;;2.40;99.90;;;;;;4951976;28;20453;-74
2023/03/28 09:08:08;;;;;;;;;;;2.40;99.90;;;;;;4984181;28;19982;-75
2023/03/28 09:10:38;;;;;;;;;;;2.40;99.90;;;;;;4951076;28;20637;-74
2023/03/28 09:13:16;;;;;;;;;;;2.30;99.90;;;;;;4956034;28;19942;-74
2023/03/28 09:15:51;;;;;;;;;;;2.40;99.90;;;;;;4951946;28;19942;-74
2023/03/28 09:18:42;;;;;;;;;;;2.40;99.90;;;;;;4950842;28;19927;-74
2023/03/28 09:21:15;;;;;;;;;;;2.40;99.90;;;;;;4936953;28;19933;-75
2023/03/28 09:23:54;;;;;;;;;;;2.40;99.90;;;;;;4948989;28;19926;-75
2023/03/28 09:26:32;;;;;;;;;;;2.30;99.90;;;;;;4948446;28;20385;-74
2023/03/28 09:29:06;;;;;;;;;;;2.50;99.90;;;;;;4979659;28;19945;-74
2023/03/28 09:31:37;;;;;;;;;;;2.40;99.90;;;;;;4949592;28;19927;-74
2023/03/28 09:34:05;;;;;;;;;;;2.40;99.90;;;;;;4985816;28;19926;-74
2023/03/28 09:36:44;;;;;;;;;;;2.30;99.90;;;;;;4948895;28;19934;-74
2023/03/28 09:39:14;;;;;;;;;;;2.50;99.90;;;;;;4951916;28;19933;-74
2023/03/28 09:41:44;;;;;;;;;;;2.50;99.90;;;;;;4951715;28;19926;-74
2023/03/28 09:44:31;;;;;;;;;;;2.40;99.90;;;;;;4950142;28;19950;-74
2023/03/28 09:47:16;;;;;;;;;;;2.30;99.90;;;;;;4951733;28;19949;-74
2023/03/28 09:49:54;;;;;;;;;;;2.50;99.90;;;;;;4984551;28;20275;-74
2023/03/28 09:52:23;;;;;;;;;;;2.40;99.90;;;;;;4953353;28;19933;-76
2023/03/28 09:54:50;;;;;;;;;;;2.50;99.90;;;;;;4955112;28;20455;-75
2023/03/28 09:57:17;;;;;;;;;;;2.50;99.90;;;;;;4953700;28;19933;-74
2023/03/28 09:59:47;;;;;;;;;;;2.60;99.90;;;;;;4952696;28;19926;-75
2023/03/28 10:02:24;;;;;;;;;;;2.50;99.90;;;;;;4948016;28;19930;-74
2023/03/28 10:04:51;;;;;;;;;;;2.40;99.90;;;;;;4950175;28;20024;-76
2023/03/28 10:07:28;;;;;;;;;;;2.60;99.90;;;;;;4968374;28;19962;-75
2023/03/28 10:10:10;;;;;;;;;;;2.60;99.90;;;;;;4962117;28;19930;-75
2023/03/28 10:12:38;;;;;;;;;;;2.60;99.90;;;;;;4971649;28;20273;-75
2023/03/28 10:15:07;;;;;;;;;;;2.60;99.90;;;;;;4996234;28;19942;-74
2023/03/28 10:17:52;;;;;;;;;;;2.60;99.90;;;;;;4952788;28;20293;-75
2023/03/28 10:20:26;;;;;;;;;;;2.60;99.90;;;;;;4948491;28;19934;-74
2023/03/28 10:22:59;;;;;;;;;;;2.60;99.90;;;;;;4985818;28;20021;-75
2023/03/28 10:25:33;;;;;;;;;;;2.70;99.90;;;;;;4961427;28;19936;-75
2023/03/28 10:28:01;;;;;;;;;;;2.70;99.90;;;;;;4945513;28;19926;-75
2023/03/28 10:30:29;;;;;;;;;;;2.60;99.90;;;;;;4950971;28;19941;-75
2023/03/28 10:33:20;;;;;;;;;;;2.70;99.90;;;;;;4947818;28;20046;-74
2023/03/28 10:36:00;;;;;;;;;;;2.70;99.90;;;;;;4978194;28;20009;-75
2023/03/28 10:38:32;;;;;;;;;;;2.70;99.90;;;;;;4952237;28;19926;-74
2023/03/28 10:41:22;;;;;;;;;;;2.80;99.90;;;;;;4950357;28;20278;-74
2023/03/28 10:44:26;;;;;;;;;;;2.90;99.90;;;;;;4939117;28;19927;-75
2023/03/28 10:47:01;;;;;;;;;;;2.80;99.90;;;;;;4985474;28;19926;-74
2023/03/28 10:49:40;;;;;;;;;;;2.90;99.90;;;;;;4949690;28;19945;-74
2023/03/28 10:52:13;;;;;;;;;;;2.90;99.90;;;;;;4950970;28;19926;-75
2023/03/28 10:54:46;;;;;;;;;;;3.00;99.90;;;;;;4986367;28;19935;-75
2023/03/28 10:57:30;;;;;;;;;;;3.00;99.90;;;;;;4952600;28;19934;-74
2023/03/28 11:00:02;;;;;;;;;;;3.00;99.90;;;;;;4983070;28;19938;-74
2023/03/28 11:02:43;;;;;;;;;;;2.90;99.90;;;;;;4946835;28;19930;-75
2023/03/28 11:05:22;;;;;;;;;;;3.10;99.90;;;;;;4949841;28;19932;-74
2023/03/28 11:07:53;;;;;;;;;;;3.10;99.90;;;;;;4981726;28;19926;-74
2023/03/28 11:10:57;;;;;;;;;;;3.00;99.90;;;;;;4935262;28;19927;-74
2023/03/28 11:13:35;;;;;;;;;;;3.00;99.90;;;;;;4949948;28;20380;-73
2023/03/28 11:16:06;;;;;;;;;;;2.90;99.90;;;;;;4946512;28;19958;-75
2023/03/28 11:18:51;;;;;;;;;;;3.10;99.90;;;;;;4958280;28;19934;-75
2023/03/28 11:21:28;;;;;;;;;;;3.10;99.90;;;;;;4947818;28;20408;-75
2023/03/28 11:23:59;;;;;;;;;;;3.10;99.90;;;;;;4953370;28;19926;-74
2023/03/28 11:26:38;;;;;;;;;;;3.10;99.90;;;;;;4947671;28;19946;-75
2023/03/28 11:29:15;;;;;;;;;;;3.10;99.90;;;;;;4957231;28;20476;-75
2023/03/28 11:31:46;;;;;;;;;;;3.30;99.90;;;;;;4956869;28;19974;-74
2023/03/28 11:34:15;;;;;;;;;;;3.20;99.90;;;;;;4946417;28;20252;-74
2023/03/28 11:36:54;;;;;;;;;;;3.10;99.90;;;;;;4952355;28;20025;-75
2023/03/28 11:39:29;;;;;;;;;;;3.30;99.90;;;;;;4980905;28;19927;-75
2023/03/28 11:41:59;;;;;;;;;;;3.30;99.90;;;;;;4950741;28;19927;-75
2023/03/28 11:44:43;;;;;;;;;;;3.40;99.90;;;;;;4954050;28;19933;-74
2023/03/28 11:47:12;;;;;;;;;;;3.30;99.90;;;;;;4953632;28;19973;-74
2023/03/28 11:49:42;;;;;;;;;;;3.40;99.90;;;;;;4978539;28;19926;-74
2023/03/28 11:52:31;;;;;;;;;;;3.40;99.90;;;;;;4955094;28;19926;-75
2023/03/28 11:55:03;;;;;;;;;;;3.40;99.90;;;;;;4954970;28;19933;-75
2023/03/28 11:57:34;;;;;;;;;;;3.40;99.90;;;;;;4985884;28;19926;-74
2023/03/28 12:00:08;;;;;;;;;;;3.40;99.90;;;;;;4957483;28;20349;-74
2023/03/28 12:02:42;;;;;;;;;;;3.50;99.90;;;;;;4950084;28;19926;-75
2023/03/28 12:05:16;;;;;;;;;;;3.50;99.90;;;;;;4959509;28;20403;-75
2023/03/28 12:07:45;;;;;;;;;;;3.50;99.90;;;;;;4954234;28;20009;-75
2023/03/28 12:10:26;;;;;;;;;;;3.50;99.90;;;;;;4947250;28;19989;-75
2023/03/28 12:13:00;;;;;;;;;;;3.60;99.90;;;;;;4965341;28;19930;-75
2023/03/28 12:15:31;;;;;;;;;;;3.60;99.90;;;;;;4953652;28;19927;-75
2023/03/28 12:18:11;;;;;;;;;;;3.60;99.90;;;;;;4951112;28;19973;-75
2023/03/28 12:20:39;;;;;;;;;;;3.70;99.90;;;;;;4951777;28;19938;-75
2023/03/28 12:23:22;;;;;;;;;;;3.60;99.90;;;;;;4986201;28;19930;-74
2023/03/28 12:26:16;;;;;;;;;;;3.80;99.90;;;;;;4947040;28;19933;-75
2023/03/28 12:28:48;;;;;;;;;;;3.70;99.90;;;;;;4986396;28;20009;-75
2023/03/28 12:31:21;;;;;;;;;;;3.60;99.90;;;;;;4981483;28;19942;-75
2023/03/28 12:33:54;;;;;;;;;;;3.70;99.90;;;;;;4951343;28;19930;-74
2023/03/28 12:36:48;;;;;;;;;;;3.60;99.90;;;;;;4948471;28;20013;-74
2023/03/28 12:39:23;;;;;;;;;;;3.70;99.90;;;;;;4982928;28;19931;-75
2023/03/28 12:41:53;;;;;;;;;;;3.70;99.90;;;;;;4984214;28;19989;-75
2023/03/28 12:44:25;;;;;;;;;;;3.70;99.90;;;;;;4971224;28;19933;-74
2023/03/28 12:46:58;;;;;;;;;;;3.90;99.90;;;;;;4953097;28;19933;-75
2023/03/28 12:49:34;;;;;;;;;;;3.80;99.90;;;;;;4957394;28;20410;-75
2023/03/28 12:52:07;;;;;;;;;;;3.90;99.90;;;;;;4954498;28;20014;-75
2023/03/28 12:54:52;;;;;;;;;;;4.00;99.90;;;;;;4983905;28;19930;-75
2023/03/28 12:57:43;;;;;;;;;;;4.00;99.90;;;;;;4983630;28;19927;-75
2023/03/28 13:00:27;;;;;;;;;;;3.90;99.90;;;;;;4969639;28;19933;-75
2023/03/28 13:03:17;;;;;;;;;;;4.00;99.90;;;;;;4952850;28;19926;-75
2023/03/28 13:05:47;;;;;;;;;;;4.10;99.90;;;;;;4954851;28;19982;-75
2023/03/28 13:08:16;;;;;;;;;;;4.00;99.90;;;;;;4949540;28;19974;-75
2023/03/28 13:10:46;;;;;;;;;;;4.00;99.90;;;;;;4985560;28;19926;-75
2023/03/28 13:13:17;;;;;;;;;;;4.20;99.90;;;;;;4984638;28;20013;-75
2023/03/28 13:16:05;;;;;;;;;;;4.20;99.90;;;;;;4947745;28;19966;-75
2023/03/28 13:18:34;;;;;;;;;;;4.20;99.90;;;;;;4950168;28;19931;-75
2023/03/28 13:21:03;;;;;;;;;;;4.10;99.90;;;;;;4953092;28;19926;-75
2023/03/28 13:23:32;;;;;;;;;;;4.20;99.90;;;;;;4948780;28;19930;-75
2023/03/28 13:25:59;;;;;;;;;;;4.20;99.90;;;;;;4973352;28;20456;-76
2023/03/28 13:28:29;;;;;;;;;;;4.20;99.90;;;;;;4949879;28;19938;-75
2023/03/28 13:31:06;;;;;;;;;;;4.30;99.90;;;;;;4950999;28;19930;-75
2023/03/28 13:33:36;;;;;;;;;;;4.40;99.90;;;;;;4952036;28;20013;-75
2023/03/28 13:36:27;;;;;;;;;;;4.60;99.90;;;;;;4951042;28;19926;-75
2023/03/28 13:39:15;;;;;;;;;;;4.50;99.90;;;;;;4943317;28;20370;-75
2023/03/28 13:41:56;;;;;;;;;;;4.70;99.90;;;;;;4974407;28;19927;-75
2023/03/28 13:44:27;;;;;;;;;;;4.70;99.90;;;;;;4944186;28;20478;-75
2023/03/28 13:46:54;;;;;;;;;;;4.70;99.90;;;;;;4948979;28;20393;-75
2023/03/28 13:49:24;;;;;;;;;;;4.70;99.90;;;;;;4950684;28;19933;-75
2023/03/28 13:51:53;;;;;;;;;;;4.90;99.90;;;;;;4956579;28;19931;-75
2023/03/28 13:54:20;;;;;;;;;;;4.90;99.90;;;;;;4974535;28;19941;-77
2023/03/28 13:56:48;;;;;;;;;;;5.00;99.90;;;;;;4979407;28;19958;-76
2023/03/28 13:59:16;;;;;;;;;;;5.30;99.90;;;;;;4950011;28;19927;-75
2023/03/28 14:01:46;;;;;;;;;;;5.30;99.90;;;;;;4950644;28;20029;-75
2023/03/28 14:04:17;;;;;;;;;;;5.30;99.90;;;;;;4938525;28;20308;-75
2023/03/28 14:06:46;;;;;;;;;;;5.50;99.90;;;;;;4947536;28;19927;-75
2023/03/28 14:09:14;;;;;;;;;;;5.70;99.90;;;;;;4948262;28;19966;-75
2023/03/28 14:11:41;;;;;;;;;;;5.70;99.90;;;;;;4946217;28;19938;-75
2023/03/28 14:14:11;;;;;;;;;;;5.80;99.90;;;;;;4947213;28;19950;-75
2023/03/28 14:16:38;;;;;;;;;;;5.80;99.90;;;;;;4947336;28;19927;-76
2023/03/28 14:19:05;;;;;;;;;;;5.80;99.90;;;;;;4951118;28;20089;-75
2023/03/28 14:21:32;;;;;;;;;;;5.80;99.90;;;;;;4947891;28;20475;-76
2023/03/28 14:24:02;;;;;;;;;;;5.70;99.90;;;;;;4949753;28;20651;-75
2023/03/28 14:26:30;;;;;;;;;;;5.70;99.90;;;;;;4975671;23;19927;-95
2023/03/28 14:29:01;;;;;;;;;;;5.70;99.90;;;;;;4965799;28;19993;-93
2023/03/28 14:31:29;;;;;;;;;;;5.70;99.90;;;;;;4962922;28;20013;-91
2023/03/28 14:33:57;;;;;;;;;;;5.80;99.90;;;;;;4991395;28;19941;-85
2023/03/28 14:36:24;;;;;;;;;;;5.90;99.90;;;;;;4977075;28;19945;-95
2023/03/28 14:38:51;;;;;;;;;;;6.00;99.90;;;;;;4973637;28;19926;-91
2023/03/28 14:41:26;;;;;;;;;;;5.90;99.90;;;;;;4966383;28;19945;-91
2023/03/28 14:43:54;;;;;;;;;;;5.90;99.90;;;;;;4968620;28;19926;-91
2023/03/28 14:46:22;;;;;;;;;;;5.90;99.90;;;;;;4965163;28;20399;-90
2023/03/28 14:48:52;;;;;;;;;;;6.00;99.90;;;;;;4962150;28;19926;-91
2023/03/28 14:51:22;;;;;;;;;;;6.10;99.90;;;;;;4945958;28;19930;-93
2023/03/28 14:53:50;;;;;;;;;;;6.20;99.90;;;;;;4961204;28;19926;-92
2023/03/28 14:56:18;;;;;;;;;;;6.10;99.90;;;;;;4967723;28;19929;-94
2023/03/28 14:58:47;;;;;;;;;;;6.20;99.90;;;;;;4960051;28;19981;-90
2023/03/28 15:01:21;;;;;;;;;;;6.30;99.90;;;;;;4960815;28;19933;-90
2023/03/28 15:03:49;;;;;;;;;;;6.30;99.90;;;;;;4967259;28;19926;-94
2023/03/28 15:06:17;;;;;;;;;;;6.30;99.90;;;;;;4964777;28;19941;-91
2023/03/28 15:08:45;;;;;;;;;;;6.30;99.90;;;;;;4962717;28;19926;-90